Terminal Aerodrome Forecast
Issued by NWS

Home | Current Version | Previous Version | Text Only | Print | Product List | Glossary On
Versions: 1 2 3 4 5 6 7 8 9 10 11 12 13 14 15 16 17 18 19 20 21 22 23 24 25 26 27 28
000
FTPA31 PHFO 200500 AAA
TAFLIH
TAF AMD
PHLI 200554Z 2006/2106 07010KT P6SM SCT022 BKN035
      TEMPO 2006/2010 BKN020
     FM201000 26006KT P6SM SCT025 BKN040
     FM201800 10008KT P6SM SCT025 BKN040=

USA.gov is the U.S. government's official web portal to all federal, state and local government web resources and services.